Seaspan Queen — CFN6640 — position and weather

sailwx.info

Track history (hours):
 
Tides and Currents Weather Stations Pressure Air Temp Water Temp Dewpoint Dewpoint Depression Visibility Wind Speed Wind Dir Waves Ship Positions

Seaspan Queen

Last reported at 2017-Oct-18 06:00 UTC. Time now 2017-Oct-18 06:08 UTC.
Position N 49°07' W 123°06'.

Length 27 m; draft 3.5 m.

Type: Tug. MMSI: 316003678.

Date/timePositionNaut miles runAvg speedWind from/ knotsBaromVisibWave heightAir tempDewpointWater temp
2017-Oct-18 06:00N 49°07' W 123°06'2 4.7
2017-Oct-18 05:30N 49°07' W 123°10'2 4.6
2017-Oct-18 05:00N 49°08' W 123°13'2 4.4
2017-Oct-18 04:30N 49°07' W 123°16'3 5.8
2017-Oct-18 04:00N 49°06' W 123°20'4 8.6
2017-Oct-18 03:30N 49°04' W 123°26'4 8.6
2017-Oct-18 03:00N 49°02' W 123°32'3 6.9
2017-Oct-18 02:30N 48°60' W 123°36'4 8.3
2017-Oct-18 02:00N 48°56' W 123°37'3 7.0
2017-Oct-18 01:30N 48°52' W 123°38'0 0.3
2017-Oct-18 01:00N 48°53' W 123°38'0 0.1
2017-Oct-18 00:30N 48°53' W 123°38'2 3.1
2017-Oct-18 00:00N 48°54' W 123°37'3 6.3
2017-Oct-17 23:30N 48°57' W 123°37'3 6.2
2017-Oct-17 23:00N 49°00' W 123°36'3 5.6
2017-Oct-17 22:30N 49°02' W 123°33'3 6.6
2017-Oct-17 22:00N 49°03' W 123°28'3 6.5
2017-Oct-17 21:30N 49°05' W 123°24'3 6.4
2017-Oct-17 21:00N 49°06' W 123°19'3 5.6
2017-Oct-17 20:30N 49°07' W 123°16'3 5.9
2017-Oct-17 20:00N 49°07' W 123°11'3 7.0
2017-Oct-17 19:30N 49°07' W 123°06'4 7.6
2017-Oct-17 19:00N 49°09' W 123°01'3 4.9
2017-Oct-17 18:29N 49°09' W 122°57'0 0.2
2017-Oct-17 18:00N 49°09' W 122°57'0 0.0
2017-Oct-17 17:30N 49°09' W 122°57'0 0.0
2017-Oct-17 16:58N 49°09' W 122°57'0 0.0
2017-Oct-17 16:30N 49°09' W 122°57'0 0.0
2017-Oct-17 16:00N 49°09' W 122°57'0 0.0
2017-Oct-17 15:30N 49°09' W 122°57'0 0.0
2017-Oct-17 15:00N 49°09' W 122°57'0 0.0
2017-Oct-17 14:30N 49°09' W 122°57'0 0.0
2017-Oct-17 14:00N 49°09' W 122°57'0 0.0
2017-Oct-17 13:30N 49°09' W 122°57'0 0.0
2017-Oct-17 13:00N 49°09' W 122°57'0 0.0
2017-Oct-17 12:30N 49°09' W 122°57'0 0.0
2017-Oct-17 12:00N 49°09' W 122°57'0 0.0
2017-Oct-17 11:30N 49°09' W 122°57'0 0.0
2017-Oct-17 11:00N 49°09' W 122°57'0 0.0
2017-Oct-17 10:30N 49°09' W 122°57'0 0.0
2017-Oct-17 10:00N 49°09' W 122°57'0 0.0
2017-Oct-17 09:30N 49°09' W 122°57'0 0.0
2017-Oct-17 09:00N 49°09' W 122°57'0 0.0
2017-Oct-17 08:30N 49°09' W 122°57'0 0.0
2017-Oct-17 08:00N 49°09' W 122°57'0 0.0
2017-Oct-17 07:30N 49°09' W 122°57'0 0.0
2017-Oct-17 07:00N 49°09' W 122°57'0 0.0
2017-Oct-17 06:30N 49°09' W 122°57'0 0.0
2017-Oct-17 06:00N 49°09' W 122°57'0 0.0
2017-Oct-17 05:30N 49°09' W 122°57'0 0.0
2017-Oct-17 05:00N 49°09' W 122°57'0 0.0
2017-Oct-17 04:30N 49°09' W 122°57'0 0.0
2017-Oct-17 01:47N 49°09' W 122°57'0 0.0
2017-Oct-17 01:27N 49°09' W 122°57'0 0.8
2017-Oct-17 01:00N 49°10' W 122°58'0 0.0
2017-Oct-17 00:30N 49°10' W 122°58'0 0.0
2017-Oct-17 00:00N 49°10' W 122°58'0 0.0
2017-Oct-16 23:31N 49°10' W 122°58'1 1.3
2017-Oct-16 23:00N 49°10' W 122°57'0 0.5
2017-Oct-16 22:30N 49°09' W 122°57'1 2.6
2017-Oct-16 22:00N 49°10' W 122°56'2 3.4
2017-Oct-16 21:30N 49°10' W 122°58'2 3.7
2017-Oct-16 21:00N 49°09' W 123°01'4 7.9
2017-Oct-16 20:30N 49°07' W 123°06'4 7.5
2017-Oct-16 20:00N 49°07' W 123°11'3 6.8
2017-Oct-16 19:30N 49°07' W 123°17'4 7.5
2017-Oct-16 19:00N 49°05' W 123°22'4 8.3
2017-Oct-16 18:30N 49°04' W 123°28'5 9.2
2017-Oct-16 18:00N 49°02' W 123°34'5 9.5
2017-Oct-16 17:30N 48°57' W 123°37'4 8.8
2017-Oct-16 17:00N 48°53' W 123°37'1 1.8
2017-Oct-16 16:30N 48°53' W 123°38'0 0.8
2017-Oct-16 16:00N 48°52' W 123°38'3 5.4
2017-Oct-16 15:30N 48°55' W 123°37'3 6.1
2017-Oct-16 14:59N 48°58' W 123°37'6 5.9
2017-Oct-16 14:00N 49°03' W 123°33'1 2.9
2017-Oct-16 13:29N 49°05' W 123°32'2 3.4
2017-Oct-16 13:00N 49°06' W 123°30'2 3.1
2017-Oct-16 12:30N 49°07' W 123°29'1 2.7
2017-Oct-16 12:00N 49°08' W 123°28'1 3.0
2017-Oct-16 11:30N 49°10' W 123°27'1 2.9
2017-Oct-16 11:00N 49°11' W 123°26'1 2.5
2017-Oct-16 10:30N 49°12' W 123°25'1 2.9
2017-Oct-16 10:00N 49°13' W 123°24'2 3.4
2017-Oct-16 09:30N 49°15' W 123°22'2 3.2
2017-Oct-16 09:00N 49°16' W 123°21'2 3.3
2017-Oct-16 08:30N 49°17' W 123°19'2 3.4
2017-Oct-16 08:00N 49°18' W 123°17'3 6.7
2017-Oct-16 07:31N 49°19' W 123°12'3 6.9
2017-Oct-16 07:00N 49°18' W 123°07'1 1.2
2017-Oct-16 06:30N 49°19' W 123°06'1 2.7
2017-Oct-16 06:00N 49°19' W 123°08'1 2.9
2017-Oct-16 05:30N 49°19' W 123°11'2 4.1
2017-Oct-16 05:00N 49°19' W 123°14'3 5.5
2017-Oct-16 04:30N 49°17' W 123°17'3 5.3
2017-Oct-16 04:00N 49°15' W 123°19'3 5.9
2017-Oct-16 03:29N 49°12' W 123°19'3 5.5
2017-Oct-16 02:59N 49°09' W 123°20'3 5.3
2017-Oct-16 02:29N 49°06' W 123°20'2 4.9
2017-Oct-16 02:00N 49°04' W 123°19'2 4.6
2017-Oct-16 01:30N 49°02' W 123°18'3 5.1
2017-Oct-16 01:01N 49°00' W 123°15'2 5.0
2017-Oct-16 00:30N 48°59' W 123°12'2 4.8
2017-Oct-16 00:00N 48°57' W 123°09'3 5.0
2017-Oct-15 23:30N 48°56' W 123°06'3 5.3
2017-Oct-15 23:00N 48°55' W 123°02'3 6.3
2017-Oct-15 22:30N 48°54' W 122°58'4 6.2
2017-Oct-15 21:55N 48°52' W 122°53'3 6.1
2017-Oct-15 21:26N 48°51' W 122°49'4 0.5
2017-Oct-15 13:54N 48°50' W 122°43'1 1.7
2017-Oct-15 13:28N 48°49' W 122°44'2 3.7
2017-Oct-15 13:00N 48°50' W 122°47'3 5.1
2017-Oct-15 12:30N 48°51' W 122°50'3 6.4
2017-Oct-15 12:00N 48°52' W 122°55'4 8.2
2017-Oct-15 11:30N 48°53' W 123°00'4 8.0
2017-Oct-15 11:00N 48°55' W 123°06'4 8.0
2017-Oct-15 10:30N 48°57' W 123°12'4 7.8
2017-Oct-15 10:00N 48°59' W 123°16'4 7.7
2017-Oct-15 09:30N 49°02' W 123°21'4 7.2
2017-Oct-15 09:00N 49°05' W 123°24'4 7.2
2017-Oct-15 08:30N 49°08' W 123°23'4 7.2
2017-Oct-15 08:00N 49°12' W 123°22'4 7.1
2017-Oct-15 07:31N 49°15' W 123°21'4 7.4
2017-Oct-15 07:00N 49°18' W 123°18'4 7.4
2017-Oct-15 06:30N 49°19' W 123°13'3 6.5
2017-Oct-15 06:00N 49°19' W 123°08'1 2.0
2017-Oct-15 05:30N 49°19' W 123°06'0 0.5
2017-Oct-15 05:00N 49°19' W 123°06'0 0.0
2017-Oct-15 04:30N 49°19' W 123°06'0 0.0
2017-Oct-15 04:00N 49°19' W 123°06'0 0.0
2017-Oct-15 03:30N 49°19' W 123°06'0 0.0
2017-Oct-15 03:00N 49°19' W 123°06'0 0.0
2017-Oct-15 02:30N 49°19' W 123°06'0 0.0
2017-Oct-15 02:00N 49°19' W 123°06'0 0.0
2017-Oct-15 01:30N 49°19' W 123°06'0 0.0
2017-Oct-15 01:00N 49°19' W 123°06'0 0.0
2017-Oct-15 00:30N 49°19' W 123°06'0 0.0
2017-Oct-15 00:01N 49°19' W 123°06'0 0.0
2017-Oct-14 23:30N 49°19' W 123°06'0 0.0
2017-Oct-14 23:00N 49°19' W 123°06'0 0.0
2017-Oct-14 22:30N 49°19' W 123°06'0 0.0
2017-Oct-14 22:00N 49°19' W 123°06'0 0.0
2017-Oct-14 21:31N 49°19' W 123°06'0 0.0
2017-Oct-14 21:00N 49°19' W 123°06'0 0.0
2017-Oct-14 20:30N 49°19' W 123°06'0 0.0
2017-Oct-14 20:00N 49°19' W 123°06'0 0.0
2017-Oct-14 19:30N 49°19' W 123°06'0 0.0
2017-Oct-14 19:00N 49°19' W 123°06'0 0.0
2017-Oct-14 18:30N 49°19' W 123°06'0 0.0
2017-Oct-14 18:00N 49°19' W 123°06'0 0.0
2017-Oct-14 17:30N 49°19' W 123°06'0 0.0
2017-Oct-14 17:00N 49°19' W 123°06'0 0.0
2017-Oct-14 16:30N 49°19' W 123°06'0 0.0
2017-Oct-14 16:01N 49°19' W 123°06'0 0.0
2017-Oct-14 15:30N 49°19' W 123°06'0 0.0
2017-Oct-14 15:00N 49°19' W 123°06'0 0.0
2017-Oct-14 14:30N 49°19' W 123°06'0 0.0
2017-Oct-14 14:00N 49°19' W 123°06'0 0.0
2017-Oct-14 13:30N 49°19' W 123°06'1 1.4
2017-Oct-14 13:00N 49°19' W 123°08'510.2
2017-Oct-14 12:30N 49°18' W 123°15'3 6.2
2017-Oct-14 12:00N 49°15' W 123°15'0 0.0
2017-Oct-14 11:31N 49°15' W 123°15'2 3.1
2017-Oct-14 11:00N 49°15' W 123°18'4 8.2
2017-Oct-14 10:30N 49°11' W 123°20'4 8.3
2017-Oct-14 09:59N 49°07' W 123°24'4 8.8
2017-Oct-14 09:30N 49°05' W 123°29'4 8.7
2017-Oct-14 09:00N 49°02' W 123°34'4 7.3
2017-Oct-14 08:30N 48°59' W 123°37'4 8.3
2017-Oct-14 08:00N 48°55' W 123°37'2 4.7
2017-Oct-14 07:31N 48°53' W 123°38'0 0.6
2017-Oct-14 07:00N 48°52' W 123°38'2 4.6
2017-Oct-14 06:30N 48°55' W 123°37'3 6.8
2017-Oct-14 06:00N 48°58' W 123°37'3 6.1
2017-Oct-14 05:30N 49°01' W 123°35'3 6.0
2017-Oct-14 04:59N 49°02' W 123°31'3 6.2
2017-Oct-14 04:31N 49°03' W 123°27'3 6.5
2017-Oct-14 04:00N 49°05' W 123°23'4 7.1
2017-Oct-14 03:30N 49°06' W 123°18'4 7.3
2017-Oct-14 03:00N 49°08' W 123°12'4 8.2
2017-Oct-14 02:30N 49°07' W 123°06'4 8.3
2017-Oct-14 02:00N 49°09' W 123°01'2 3.0
2017-Oct-14 01:17N 49°09' W 122°58'3 8.8
2017-Oct-14 01:00N 49°09' W 123°02'4 8.9
2017-Oct-14 00:30N 49°07' W 123°07'3 5.5
2017-Oct-13 23:59N 49°07' W 123°11'0 0.0
2017-Oct-13 23:29N 49°07' W 123°11'0 0.0
2017-Oct-13 23:00N 49°07' W 123°11'0 0.0
2017-Oct-13 22:30N 49°07' W 123°11'0 0.0
2017-Oct-13 22:00N 49°07' W 123°11'0 0.0
2017-Oct-13 21:30N 49°07' W 123°11'0 0.0
2017-Oct-13 21:00N 49°07' W 123°11'0 0.3
2017-Oct-13 20:30N 49°07' W 123°11'4 8.2
2017-Oct-13 20:00N 49°07' W 123°05'4 8.2
2017-Oct-13 19:30N 49°09' W 123°00'1 1.8
2017-Oct-13 19:00N 49°09' W 122°59'3 5.7
2017-Oct-13 18:30N 49°09' W 123°03'3 6.9
2017-Oct-13 18:00N 49°07' W 123°07'3 6.4
2017-Oct-13 17:30N 49°07' W 123°12'4 7.3
2017-Oct-13 16:59N 49°06' W 123°18'4 7.7
2017-Oct-13 16:30N 49°04' W 123°22'4 7.4
2017-Oct-13 16:00N 49°03' W 123°28'4 8.5
2017-Oct-13 15:30N 49°02' W 123°34'4 8.5
2017-Oct-13 15:00N 48°58' W 123°37'4 8.0
2017-Oct-13 14:30N 48°54' W 123°37'2 3.7
2017-Oct-13 14:00N 48°53' W 123°38'0 0.1
2017-Oct-13 13:30N 48°53' W 123°38'0 0.9
2017-Oct-13 12:59N 48°53' W 123°37'1 2.8
2017-Oct-13 12:30N 48°54' W 123°37'1 1.6
2017-Oct-13 12:00N 48°55' W 123°36'1 1.4
2017-Oct-13 11:30N 48°55' W 123°36'1 1.5
2017-Oct-13 10:59N 48°56' W 123°37'1 1.4
2017-Oct-13 10:30N 48°57' W 123°37'1 1.7
2017-Oct-13 10:00N 48°58' W 123°37'2 4.0
2017-Oct-13 09:30N 48°59' W 123°36'2 4.7
2017-Oct-13 08:58N 49°02' W 123°35'1 2.9
2017-Oct-13 08:30N 49°03' W 123°34'1 2.8
2017-Oct-13 08:00N 49°04' W 123°33'2 2.8
2017-Oct-13 07:24N 49°06' W 123°32'1 2.4
2017-Oct-13 06:54N 49°07' W 123°31'2 4.4
2017-Oct-13 06:29N 49°08' W 123°29'2 4.9
2017-Oct-13 05:59N 49°10' W 123°26'2 3.2
2017-Oct-13 05:30N 49°11' W 123°25'2 3.4
2017-Oct-13 05:00N 49°13' W 123°24'2 4.7
2017-Oct-13 04:30N 49°14' W 123°21'3 5.6
2017-Oct-13 04:00N 49°16' W 123°17'1 2.8
2017-Oct-13 03:30N 49°15' W 123°16'2 3.5
2017-Oct-13 03:00N 49°14' W 123°14'0 0.3
2017-Oct-13 02:30N 49°14' W 123°14'3 6.2
2017-Oct-13 02:00N 49°16' W 123°18'4 7.2
2017-Oct-13 01:30N 49°16' W 123°23'4 7.8
2017-Oct-13 01:00N 49°15' W 123°29'4 8.0
2017-Oct-13 00:30N 49°14' W 123°35'4 8.2
2017-Oct-12 23:59N 49°14' W 123°41'4 8.2
2017-Oct-12 23:30N 49°13' W 123°47'4 7.6
2017-Oct-12 23:00N 49°12' W 123°53'3 4.5
2017-Oct-12 22:21N 49°09' W 123°51'0 0.2
2017-Oct-12 21:57N 49°09' W 123°51'1 1.4
2017-Oct-12 21:28N 49°09' W 123°52'2 3.7
2017-Oct-12 21:00N 49°10' W 123°53'3 5.1
2017-Oct-12 20:30N 49°12' W 123°51'3 6.0
2017-Oct-12 19:57N 49°13' W 123°46'3 6.2
2017-Oct-12 19:30N 49°12' W 123°42'3 6.1
2017-Oct-12 18:59N 49°11' W 123°37'3 6.0
2017-Oct-12 18:30N 49°10' W 123°33'3 5.8
2017-Oct-12 18:00N 49°09' W 123°29'3 5.6
2017-Oct-12 17:30N 49°08' W 123°25'3 6.0
2017-Oct-12 17:00N 49°07' W 123°21'2 4.7
2017-Oct-12 16:30N 49°07' W 123°17'2 4.7
2017-Oct-12 16:01N 49°08' W 123°14'3 5.4
2017-Oct-12 15:30N 49°07' W 123°10'3 6.1
2017-Oct-12 14:59N 49°07' W 123°05'3 6.7
2017-Oct-12 14:30N 49°09' W 123°02'3 5.8
2017-Oct-12 14:00N 49°09' W 122°57'0 0.9
2017-Oct-12 13:30N 49°09' W 122°58'1 1.4
2017-Oct-12 13:00N 49°09' W 122°59'2 3.5
2017-Oct-12 12:30N 49°09' W 123°02'2 3.7
2017-Oct-12 12:00N 49°08' W 123°04'2 3.8
2017-Oct-12 11:30N 49°07' W 123°06'2 3.4
2017-Oct-12 11:00N 49°07' W 123°09'2 3.3
2017-Oct-12 10:30N 49°07' W 123°11'2 3.8
2017-Oct-12 10:00N 49°08' W 123°14'2 3.4
2017-Oct-12 09:30N 49°07' W 123°16'2 3.0
2017-Oct-12 08:59N 49°06' W 123°18'1 2.3
2017-Oct-12 08:30N 49°07' W 123°19'2 3.8
2017-Oct-12 08:00N 49°09' W 123°19'2 3.7
2017-Oct-12 07:30N 49°11' W 123°19'3 6.1
2017-Oct-12 07:00N 49°14' W 123°18'2 4.2
2017-Oct-12 06:30N 49°15' W 123°21'3 6.9
2017-Oct-12 06:00N 49°17' W 123°25'3 6.7
2017-Oct-12 05:30N 49°19' W 123°30'3 7.0
2017-Oct-12 05:01N 49°20' W 123°35'3 6.6
2017-Oct-12 04:31N 49°21' W 123°39'3 7.0
2017-Oct-12 04:00N 49°23' W 123°44'3 6.8
2017-Oct-12 03:30N 49°24' W 123°49'3 6.9
2017-Oct-12 03:00N 49°26' W 123°54'3 7.0
2017-Oct-12 02:30N 49°27' W 123°58'4 7.1
2017-Oct-12 02:01N 49°29' W 124°03'4 7.3
2017-Oct-12 01:30N 49°32' W 124°06'4 7.8
2017-Oct-12 01:00N 49°35' W 124°10'4 7.6
2017-Oct-12 00:30N 49°38' W 124°14'4 7.6
2017-Oct-12 00:00N 49°41' W 124°18'4 7.3
2017-Oct-11 23:30N 49°43' W 124°22'4 7.3
2017-Oct-11 23:00N 49°45' W 124°27'4 7.5
2017-Oct-11 22:30N 49°48' W 124°31'4 7.5
2017-Oct-11 22:00N 49°51' W 124°34'1 2.1
2017-Oct-11 21:27N 49°52' W 124°33'0 0.9
2017-Oct-11 21:00N 49°52' W 124°34'1 2.0
2017-Oct-11 20:31N 49°51' W 124°33'3 5.3
2017-Oct-11 20:00N 49°48' W 124°32'3 5.2
2017-Oct-11 19:30N 49°47' W 124°29'3 5.0
2017-Oct-11 19:00N 49°45' W 124°26'2 5.0
2017-Oct-11 18:30N 49°44' W 124°23'3 5.0
2017-Oct-11 18:00N 49°43' W 124°20'3 5.0
2017-Oct-11 17:30N 49°41' W 124°17'2 5.0
2017-Oct-11 17:00N 49°39' W 124°15'22 1.3
2017-Oct-11 00:00N 49°28' W 123°45'1 2.2
2017-Oct-10 23:30N 49°27' W 123°45'2 3.8
2017-Oct-10 23:00N 49°25' W 123°44'2 4.2
2017-Oct-10 22:30N 49°23' W 123°42'3 5.7
2017-Oct-10 22:00N 49°21' W 123°40'4 7.3
2017-Oct-10 21:30N 49°18' W 123°36'4 8.6
2017-Oct-10 21:00N 49°15' W 123°32'4 8.4
2017-Oct-10 20:30N 49°12' W 123°28'4 8.1
2017-Oct-10 20:00N 49°09' W 123°24'4 8.0
2017-Oct-10 19:30N 49°06' W 123°19'4 8.1
2017-Oct-10 19:00N 49°08' W 123°13'4 7.7
2017-Oct-10 18:30N 49°07' W 123°07'4 7.7
2017-Oct-10 18:00N 49°09' W 123°02'3 6.7
2017-Oct-10 17:30N 49°09' W 122°57'3 5.5
2017-Oct-10 17:00N 49°12' W 122°55'0 0.8
2017-Oct-10 16:22N 49°12' W 122°55'0 0.0
2017-Oct-10 16:00N 49°12' W 122°55'0 0.0
2017-Oct-10 15:30N 49°12' W 122°55'0 0.0
2017-Oct-10 13:49N 49°12' W 122°55'1 2.9
2017-Oct-10 13:30N 49°11' W 122°55'1 1.0
2017-Oct-10 13:00N 49°12' W 122°55'2 3.5
2017-Oct-10 12:30N 49°10' W 122°56'2 4.7
2017-Oct-10 12:00N 49°09' W 122°59'2 4.4
2017-Oct-10 11:30N 49°09' W 123°02'2 3.5
2017-Oct-10 11:00N 49°07' W 123°04'2 3.1
2017-Oct-10 10:30N 49°07' W 123°06'1 2.1
2017-Oct-10 10:00N 49°06' W 123°08'1 1.9
2017-Oct-10 09:30N 49°07' W 123°09'1 1.9
2017-Oct-10 09:01N 49°07' W 123°11'1 2.2
2017-Oct-10 08:30N 49°07' W 123°12'1 2.1
2017-Oct-10 08:00N 49°08' W 123°14'1 2.5
2017-Oct-10 07:30N 49°07' W 123°16'2 3.4
2017-Oct-10 07:00N 49°06' W 123°18'2 3.9
2017-Oct-10 06:30N 49°08' W 123°19'3 6.7
2017-Oct-10 06:00N 49°12' W 123°18'3 6.4
2017-Oct-10 05:30N 49°15' W 123°18'2 4.2
2017-Oct-10 05:01N 49°16' W 123°20'2 4.1
2017-Oct-10 04:30N 49°17' W 123°23'3 5.4
2017-Oct-10 04:00N 49°18' W 123°27'3 5.4
2017-Oct-10 03:30N 49°19' W 123°31'3 5.4
2017-Oct-10 03:00N 49°20' W 123°35'3 5.3
2017-Oct-10 02:31N 49°21' W 123°38'3 5.4
2017-Oct-10 02:00N 49°22' W 123°42'3 5.5
2017-Oct-10 01:31N 49°23' W 123°46'3 5.4
2017-Oct-10 01:00N 49°24' W 123°50'3 5.5
2017-Oct-10 00:31N 49°25' W 123°54'3 5.2
2017-Oct-10 00:00N 49°26' W 123°57'2 4.8
2017-Oct-09 23:30N 49°28' W 124°00'2 4.7
2017-Oct-09 23:00N 49°30' W 124°03'3 5.0
2017-Oct-09 22:30N 49°32' W 124°05'3 5.2
2017-Oct-09 22:00N 49°34' W 124°08'3 5.2
2017-Oct-09 21:30N 49°36' W 124°10'3 5.4
2017-Oct-09 21:00N 49°38' W 124°13'3 5.6
2017-Oct-09 20:30N 49°40' W 124°16'3 5.4
2017-Oct-09 20:00N 49°42' W 124°19'3 5.4
2017-Oct-09 19:30N 49°43' W 124°22'3 5.6
2017-Oct-09 19:00N 49°45' W 124°26'3 5.3
2017-Oct-09 18:30N 49°46' W 124°29'3 5.1
2017-Oct-09 18:00N 49°48' W 124°32'2 4.8
2017-Oct-09 17:30N 49°50' W 124°33'2 3.8
2017-Oct-09 17:00N 49°52' W 124°34'0 0.6
2017-Oct-09 16:30N 49°52' W 124°34'0 0.0
2017-Oct-09 16:01N 49°52' W 124°34'0 0.2
2017-Oct-09 15:30N 49°52' W 124°34'0 0.4
2017-Oct-09 15:01N 49°52' W 124°34'1 2.4
2017-Oct-09 14:30N 49°51' W 124°33'2 4.6
2017-Oct-09 14:00N 49°49' W 124°33'2 4.6
2017-Oct-09 13:30N 49°47' W 124°30'2 4.4
2017-Oct-09 13:00N 49°46' W 124°28'2 4.6
2017-Oct-09 12:30N 49°44' W 124°25'2 4.4
2017-Oct-09 12:00N 49°43' W 124°22'2 4.5
2017-Oct-09 11:30N 49°42' W 124°19'2 4.5
2017-Oct-09 11:00N 49°41' W 124°16'2 4.5
2017-Oct-09 10:30N 49°39' W 124°14'3 5.3
2017-Oct-09 10:00N 49°37' W 124°11'3 5.6
2017-Oct-09 09:30N 49°35' W 124°08'3 5.6
2017-Oct-09 09:00N 49°33' W 124°06'3 5.5
2017-Oct-09 08:30N 49°30' W 124°04'3 5.7
2017-Oct-09 08:00N 49°28' W 124°01'3 5.8
2017-Oct-09 07:30N 49°27' W 123°57'3 5.8
2017-Oct-09 07:00N 49°26' W 123°52'3 6.0
2017-Oct-09 06:30N 49°25' W 123°48'3 6.0
2017-Oct-09 06:00N 49°24' W 123°44'3 5.8
2017-Oct-09 05:30N 49°23' W 123°40'3 5.8
2017-Oct-09 05:00N 49°22' W 123°36'3 6.1
2017-Oct-09 04:30N 49°21' W 123°31'3 6.1
2017-Oct-09 04:01N 49°19' W 123°27'3 6.0
2017-Oct-09 03:30N 49°18' W 123°23'3 5.8
2017-Oct-09 03:00N 49°17' W 123°19'2 3.5
2017-Oct-09 02:30N 49°16' W 123°17'1 2.4
2017-Oct-09 02:00N 49°14' W 123°18'2 3.3
2017-Oct-09 01:30N 49°13' W 123°18'3 5.7
2017-Oct-09 00:59N 49°10' W 123°19'3 6.2
2017-Oct-09 00:30N 49°07' W 123°19'2 3.8
2017-Oct-08 23:59N 49°07' W 123°16'3 6.0
2017-Oct-08 23:30N 49°07' W 123°12'4 7.1
2017-Oct-08 23:00N 49°07' W 123°07'4 7.1
2017-Oct-08 22:29N 49°09' W 123°02'3 6.8
2017-Oct-08 22:00N 49°09' W 122°57'0 0.4
2017-Oct-08 21:31N 49°09' W 122°57'0 0.0
2017-Oct-08 21:00N 49°09' W 122°57'0 0.5
2017-Oct-08 20:30N 49°09' W 122°58'1 1.2
2017-Oct-08 20:00N 49°09' W 122°59'2 3.2
2017-Oct-08 19:30N 49°09' W 123°01'2 4.1
2017-Oct-08 19:00N 49°08' W 123°04'2 3.1
2017-Oct-08 18:30N 49°07' W 123°05'2 3.5
2017-Oct-08 18:00N 49°06' W 123°08'2 3.5
2017-Oct-08 17:30N 49°07' W 123°11'2 3.9
2017-Oct-08 17:00N 49°08' W 123°13'4 7.4
2017-Oct-08 16:30N 49°06' W 123°18'3 7.1
2017-Oct-08 16:00N 49°10' W 123°19'4 8.1
2017-Oct-08 15:30N 49°14' W 123°18'2 4.9
2017-Oct-08 15:00N 49°16' W 123°18'1 1.9
2017-Oct-08 14:30N 49°16' W 123°19'2 3.8
2017-Oct-08 14:00N 49°16' W 123°22'2 3.8
2017-Oct-08 13:30N 49°17' W 123°24'2 4.3
2017-Oct-08 13:00N 49°18' W 123°27'2 4.2
2017-Oct-08 12:30N 49°19' W 123°30'2 4.0
2017-Oct-08 12:01N 49°20' W 123°33'2 4.3
2017-Oct-08 11:30N 49°20' W 123°36'2 4.4
2017-Oct-08 11:00N 49°21' W 123°39'2 4.3
2017-Oct-08 10:30N 49°22' W 123°42'2 4.1
2017-Oct-08 10:00N 49°23' W 123°45'2 4.3
2017-Oct-08 09:30N 49°24' W 123°48'2 4.7
2017-Oct-08 09:00N 49°25' W 123°52'4 7.7
2017-Oct-08 08:30N 49°26' W 123°57'4 8.3
2017-Oct-08 08:00N 49°29' W 124°02'4 7.8
2017-Oct-08 07:30N 49°32' W 124°06'4 8.1
2017-Oct-08 07:00N 49°35' W 124°10'4 8.0
2017-Oct-08 06:30N 49°38' W 124°14'  
Track history (hours):
 
Tides and Currents Weather Stations Pressure Air Temp Water Temp Dewpoint Dewpoint Depression Visibility Wind Speed Wind Dir Waves Ship Positions

Seaspan Queen

Last reported at 2017-Oct-18 06:00 UTC. Time now 2017-Oct-18 06:08 UTC.
Position N 49°07' W 123°06'.

Length 27 m; draft 3.5 m.

Type: Tug. MMSI: 316003678.

Date/timePositionNaut miles runAvg speedWind from/ knotsBaromVisibWave heightAir tempDewpointWater temp
2017-Oct-18 06:00N 49°07' W 123°06'2 4.7
2017-Oct-18 05:30N 49°07' W 123°10'2 4.6
2017-Oct-18 05:00N 49°08' W 123°13'2 4.4
2017-Oct-18 04:30N 49°07' W 123°16'3 5.8
2017-Oct-18 04:00N 49°06' W 123°20'4 8.6
2017-Oct-18 03:30N 49°04' W 123°26'4 8.6
2017-Oct-18 03:00N 49°02' W 123°32'3 6.9
2017-Oct-18 02:30N 48°60' W 123°36'4 8.3
2017-Oct-18 02:00N 48°56' W 123°37'3 7.0
2017-Oct-18 01:30N 48°52' W 123°38'0 0.3
2017-Oct-18 01:00N 48°53' W 123°38'0 0.1
2017-Oct-18 00:30N 48°53' W 123°38'2 3.1
2017-Oct-18 00:00N 48°54' W 123°37'3 6.3
2017-Oct-17 23:30N 48°57' W 123°37'3 6.2
2017-Oct-17 23:00N 49°00' W 123°36'3 5.6
2017-Oct-17 22:30N 49°02' W 123°33'3 6.6
2017-Oct-17 22:00N 49°03' W 123°28'3 6.5
2017-Oct-17 21:30N 49°05' W 123°24'3 6.4
2017-Oct-17 21:00N 49°06' W 123°19'3 5.6
2017-Oct-17 20:30N 49°07' W 123°16'3 5.9
2017-Oct-17 20:00N 49°07' W 123°11'3 7.0
2017-Oct-17 19:30N 49°07' W 123°06'4 7.6
2017-Oct-17 19:00N 49°09' W 123°01'3 4.9
2017-Oct-17 18:29N 49°09' W 122°57'0 0.2
2017-Oct-17 18:00N 49°09' W 122°57'0 0.0
2017-Oct-17 17:30N 49°09' W 122°57'0 0.0
2017-Oct-17 16:58N 49°09' W 122°57'0 0.0
2017-Oct-17 16:30N 49°09' W 122°57'0 0.0
2017-Oct-17 16:00N 49°09' W 122°57'0 0.0
2017-Oct-17 15:30N 49°09' W 122°57'0 0.0
2017-Oct-17 15:00N 49°09' W 122°57'0 0.0
2017-Oct-17 14:30N 49°09' W 122°57'0 0.0
2017-Oct-17 14:00N 49°09' W 122°57'0 0.0
2017-Oct-17 13:30N 49°09' W 122°57'0 0.0
2017-Oct-17 13:00N 49°09' W 122°57'0 0.0
2017-Oct-17 12:30N 49°09' W 122°57'0 0.0
2017-Oct-17 12:00N 49°09' W 122°57'0 0.0
2017-Oct-17 11:30N 49°09' W 122°57'0 0.0
2017-Oct-17 11:00N 49°09' W 122°57'0 0.0
2017-Oct-17 10:30N 49°09' W 122°57'0 0.0
2017-Oct-17 10:00N 49°09' W 122°57'0 0.0
2017-Oct-17 09:30N 49°09' W 122°57'0 0.0
2017-Oct-17 09:00N 49°09' W 122°57'0 0.0
2017-Oct-17 08:30N 49°09' W 122°57'0 0.0
2017-Oct-17 08:00N 49°09' W 122°57'0 0.0
2017-Oct-17 07:30N 49°09' W 122°57'0 0.0
2017-Oct-17 07:00N 49°09' W 122°57'0 0.0
2017-Oct-17 06:30N 49°09' W 122°57'0 0.0
2017-Oct-17 06:00N 49°09' W 122°57'0 0.0
2017-Oct-17 05:30N 49°09' W 122°57'0 0.0
2017-Oct-17 05:00N 49°09' W 122°57'0 0.0
2017-Oct-17 04:30N 49°09' W 122°57'0 0.0
2017-Oct-17 01:47N 49°09' W 122°57'0 0.0
2017-Oct-17 01:27N 49°09' W 122°57'0 0.8
2017-Oct-17 01:00N 49°10' W 122°58'0 0.0
2017-Oct-17 00:30N 49°10' W 122°58'0 0.0
2017-Oct-17 00:00N 49°10' W 122°58'0 0.0
2017-Oct-16 23:31N 49°10' W 122°58'1 1.3
2017-Oct-16 23:00N 49°10' W 122°57'0 0.5
2017-Oct-16 22:30N 49°09' W 122°57'1 2.6
2017-Oct-16 22:00N 49°10' W 122°56'2 3.4
2017-Oct-16 21:30N 49°10' W 122°58'2 3.7
2017-Oct-16 21:00N 49°09' W 123°01'4 7.9
2017-Oct-16 20:30N 49°07' W 123°06'4 7.5
2017-Oct-16 20:00N 49°07' W 123°11'3 6.8
2017-Oct-16 19:30N 49°07' W 123°17'4 7.5
2017-Oct-16 19:00N 49°05' W 123°22'4 8.3
2017-Oct-16 18:30N 49°04' W 123°28'5 9.2
2017-Oct-16 18:00N 49°02' W 123°34'5 9.5
2017-Oct-16 17:30N 48°57' W 123°37'4 8.8
2017-Oct-16 17:00N 48°53' W 123°37'1 1.8
2017-Oct-16 16:30N 48°53' W 123°38'0 0.8
2017-Oct-16 16:00N 48°52' W 123°38'3 5.4
2017-Oct-16 15:30N 48°55' W 123°37'3 6.1
2017-Oct-16 14:59N 48°58' W 123°37'6 5.9
2017-Oct-16 14:00N 49°03' W 123°33'1 2.9
2017-Oct-16 13:29N 49°05' W 123°32'2 3.4
2017-Oct-16 13:00N 49°06' W 123°30'2 3.1
2017-Oct-16 12:30N 49°07' W 123°29'1 2.7
2017-Oct-16 12:00N 49°08' W 123°28'1 3.0
2017-Oct-16 11:30N 49°10' W 123°27'1 2.9
2017-Oct-16 11:00N 49°11' W 123°26'1 2.5
2017-Oct-16 10:30N 49°12' W 123°25'1 2.9
2017-Oct-16 10:00N 49°13' W 123°24'2 3.4
2017-Oct-16 09:30N 49°15' W 123°22'2 3.2
2017-Oct-16 09:00N 49°16' W 123°21'2 3.3
2017-Oct-16 08:30N 49°17' W 123°19'2 3.4
2017-Oct-16 08:00N 49°18' W 123°17'3 6.7
2017-Oct-16 07:31N 49°19' W 123°12'3 6.9
2017-Oct-16 07:00N 49°18' W 123°07'1 1.2
2017-Oct-16 06:30N 49°19' W 123°06'1 2.7
2017-Oct-16 06:00N 49°19' W 123°08'1 2.9
2017-Oct-16 05:30N 49°19' W 123°11'2 4.1
2017-Oct-16 05:00N 49°19' W 123°14'3 5.5
2017-Oct-16 04:30N 49°17' W 123°17'3 5.3
2017-Oct-16 04:00N 49°15' W 123°19'3 5.9
2017-Oct-16 03:29N 49°12' W 123°19'3 5.5
2017-Oct-16 02:59N 49°09' W 123°20'3 5.3
2017-Oct-16 02:29N 49°06' W 123°20'2 4.9
2017-Oct-16 02:00N 49°04' W 123°19'2 4.6
2017-Oct-16 01:30N 49°02' W 123°18'3 5.1
2017-Oct-16 01:01N 49°00' W 123°15'2 5.0
2017-Oct-16 00:30N 48°59' W 123°12'2 4.8
2017-Oct-16 00:00N 48°57' W 123°09'3 5.0
2017-Oct-15 23:30N 48°56' W 123°06'3 5.3
2017-Oct-15 23:00N 48°55' W 123°02'3 6.3
2017-Oct-15 22:30N 48°54' W 122°58'4 6.2
2017-Oct-15 21:55N 48°52' W 122°53'3 6.1
2017-Oct-15 21:26N 48°51' W 122°49'4 0.5
2017-Oct-15 13:54N 48°50' W 122°43'1 1.7
2017-Oct-15 13:28N 48°49' W 122°44'2 3.7
2017-Oct-15 13:00N 48°50' W 122°47'3 5.1
2017-Oct-15 12:30N 48°51' W 122°50'3 6.4
2017-Oct-15 12:00N 48°52' W 122°55'4 8.2
2017-Oct-15 11:30N 48°53' W 123°00'4 8.0
2017-Oct-15 11:00N 48°55' W 123°06'4 8.0
2017-Oct-15 10:30N 48°57' W 123°12'4 7.8
2017-Oct-15 10:00N 48°59' W 123°16'4 7.7
2017-Oct-15 09:30N 49°02' W 123°21'4 7.2
2017-Oct-15 09:00N 49°05' W 123°24'4 7.2
2017-Oct-15 08:30N 49°08' W 123°23'4 7.2
2017-Oct-15 08:00N 49°12' W 123°22'4 7.1
2017-Oct-15 07:31N 49°15' W 123°21'4 7.4
2017-Oct-15 07:00N 49°18' W 123°18'4 7.4
2017-Oct-15 06:30N 49°19' W 123°13'3 6.5
2017-Oct-15 06:00N 49°19' W 123°08'1 2.0
2017-Oct-15 05:30N 49°19' W 123°06'0 0.5
2017-Oct-15 05:00N 49°19' W 123°06'0 0.0
2017-Oct-15 04:30N 49°19' W 123°06'0 0.0
2017-Oct-15 04:00N 49°19' W 123°06'0 0.0
2017-Oct-15 03:30N 49°19' W 123°06'0 0.0
2017-Oct-15 03:00N 49°19' W 123°06'0 0.0
2017-Oct-15 02:30N 49°19' W 123°06'0 0.0
2017-Oct-15 02:00N 49°19' W 123°06'0 0.0
2017-Oct-15 01:30N 49°19' W 123°06'0 0.0
2017-Oct-15 01:00N 49°19' W 123°06'0 0.0
2017-Oct-15 00:30N 49°19' W 123°06'0 0.0
2017-Oct-15 00:01N 49°19' W 123°06'0 0.0
2017-Oct-14 23:30N 49°19' W 123°06'0 0.0
2017-Oct-14 23:00N 49°19' W 123°06'0 0.0
2017-Oct-14 22:30N 49°19' W 123°06'0 0.0
2017-Oct-14 22:00N 49°19' W 123°06'0 0.0
2017-Oct-14 21:31N 49°19' W 123°06'0 0.0
2017-Oct-14 21:00N 49°19' W 123°06'0 0.0
2017-Oct-14 20:30N 49°19' W 123°06'0 0.0
2017-Oct-14 20:00N 49°19' W 123°06'0 0.0
2017-Oct-14 19:30N 49°19' W 123°06'0 0.0
2017-Oct-14 19:00N 49°19' W 123°06'0 0.0
2017-Oct-14 18:30N 49°19' W 123°06'0 0.0
2017-Oct-14 18:00N 49°19' W 123°06'0 0.0
2017-Oct-14 17:30N 49°19' W 123°06'0 0.0
2017-Oct-14 17:00N 49°19' W 123°06'0 0.0
2017-Oct-14 16:30N 49°19' W 123°06'0 0.0
2017-Oct-14 16:01N 49°19' W 123°06'0 0.0
2017-Oct-14 15:30N 49°19' W 123°06'0 0.0
2017-Oct-14 15:00N 49°19' W 123°06'0 0.0
2017-Oct-14 14:30N 49°19' W 123°06'0 0.0
2017-Oct-14 14:00N 49°19' W 123°06'0 0.0
2017-Oct-14 13:30N 49°19' W 123°06'1 1.4
2017-Oct-14 13:00N 49°19' W 123°08'510.2
2017-Oct-14 12:30N 49°18' W 123°15'3 6.2
2017-Oct-14 12:00N 49°15' W 123°15'0 0.0
2017-Oct-14 11:31N 49°15' W 123°15'2 3.1
2017-Oct-14 11:00N 49°15' W 123°18'4 8.2
2017-Oct-14 10:30N 49°11' W 123°20'4 8.3
2017-Oct-14 09:59N 49°07' W 123°24'4 8.8
2017-Oct-14 09:30N 49°05' W 123°29'4 8.7
2017-Oct-14 09:00N 49°02' W 123°34'4 7.3
2017-Oct-14 08:30N 48°59' W 123°37'4 8.3
2017-Oct-14 08:00N 48°55' W 123°37'2 4.7
2017-Oct-14 07:31N 48°53' W 123°38'0 0.6
2017-Oct-14 07:00N 48°52' W 123°38'2 4.6
2017-Oct-14 06:30N 48°55' W 123°37'3 6.8
2017-Oct-14 06:00N 48°58' W 123°37'3 6.1
2017-Oct-14 05:30N 49°01' W 123°35'3 6.0
2017-Oct-14 04:59N 49°02' W 123°31'3 6.2
2017-Oct-14 04:31N 49°03' W 123°27'3 6.5
2017-Oct-14 04:00N 49°05' W 123°23'4 7.1
2017-Oct-14 03:30N 49°06' W 123°18'4 7.3
2017-Oct-14 03:00N 49°08' W 123°12'4 8.2
2017-Oct-14 02:30N 49°07' W 123°06'4 8.3
2017-Oct-14 02:00N 49°09' W 123°01'2 3.0
2017-Oct-14 01:17N 49°09' W 122°58'3 8.8
2017-Oct-14 01:00N 49°09' W 123°02'4 8.9
2017-Oct-14 00:30N 49°07' W 123°07'3 5.5
2017-Oct-13 23:59N 49°07' W 123°11'0 0.0
2017-Oct-13 23:29N 49°07' W 123°11'0 0.0
2017-Oct-13 23:00N 49°07' W 123°11'0 0.0
2017-Oct-13 22:30N 49°07' W 123°11'0 0.0
2017-Oct-13 22:00N 49°07' W 123°11'0 0.0
2017-Oct-13 21:30N 49°07' W 123°11'0 0.0
2017-Oct-13 21:00N 49°07' W 123°11'0 0.3
2017-Oct-13 20:30N 49°07' W 123°11'4 8.2
2017-Oct-13 20:00N 49°07' W 123°05'4 8.2
2017-Oct-13 19:30N 49°09' W 123°00'1 1.8
2017-Oct-13 19:00N 49°09' W 122°59'3 5.7
2017-Oct-13 18:30N 49°09' W 123°03'3 6.9
2017-Oct-13 18:00N 49°07' W 123°07'3 6.4
2017-Oct-13 17:30N 49°07' W 123°12'4 7.3
2017-Oct-13 16:59N 49°06' W 123°18'4 7.7
2017-Oct-13 16:30N 49°04' W 123°22'4 7.4
2017-Oct-13 16:00N 49°03' W 123°28'4 8.5
2017-Oct-13 15:30N 49°02' W 123°34'4 8.5
2017-Oct-13 15:00N 48°58' W 123°37'4 8.0
2017-Oct-13 14:30N 48°54' W 123°37'2 3.7
2017-Oct-13 14:00N 48°53' W 123°38'0 0.1
2017-Oct-13 13:30N 48°53' W 123°38'0 0.9
2017-Oct-13 12:59N 48°53' W 123°37'1 2.8
2017-Oct-13 12:30N 48°54' W 123°37'1 1.6
2017-Oct-13 12:00N 48°55' W 123°36'1 1.4
2017-Oct-13 11:30N 48°55' W 123°36'1 1.5
2017-Oct-13 10:59N 48°56' W 123°37'1 1.4
2017-Oct-13 10:30N 48°57' W 123°37'1 1.7
2017-Oct-13 10:00N 48°58' W 123°37'2 4.0
2017-Oct-13 09:30N 48°59' W 123°36'2 4.7
2017-Oct-13 08:58N 49°02' W 123°35'1 2.9
2017-Oct-13 08:30N 49°03' W 123°34'1 2.8
2017-Oct-13 08:00N 49°04' W 123°33'2 2.8
2017-Oct-13 07:24N 49°06' W 123°32'1 2.4
2017-Oct-13 06:54N 49°07' W 123°31'2 4.4
2017-Oct-13 06:29N 49°08' W 123°29'2 4.9
2017-Oct-13 05:59N 49°10' W 123°26'2 3.2
2017-Oct-13 05:30N 49°11' W 123°25'2 3.4
2017-Oct-13 05:00N 49°13' W 123°24'2 4.7
2017-Oct-13 04:30N 49°14' W 123°21'3 5.6
2017-Oct-13 04:00N 49°16' W 123°17'1 2.8
2017-Oct-13 03:30N 49°15' W 123°16'2 3.5
2017-Oct-13 03:00N 49°14' W 123°14'0 0.3
2017-Oct-13 02:30N 49°14' W 123°14'3 6.2
2017-Oct-13 02:00N 49°16' W 123°18'4 7.2
2017-Oct-13 01:30N 49°16' W 123°23'4 7.8
2017-Oct-13 01:00N 49°15' W 123°29'4 8.0
2017-Oct-13 00:30N 49°14' W 123°35'4 8.2
2017-Oct-12 23:59N 49°14' W 123°41'4 8.2
2017-Oct-12 23:30N 49°13' W 123°47'4 7.6
2017-Oct-12 23:00N 49°12' W 123°53'3 4.5
2017-Oct-12 22:21N 49°09' W 123°51'0 0.2
2017-Oct-12 21:57N 49°09' W 123°51'1 1.4
2017-Oct-12 21:28N 49°09' W 123°52'2 3.7
2017-Oct-12 21:00N 49°10' W 123°53'3 5.1
2017-Oct-12 20:30N 49°12' W 123°51'3 6.0
2017-Oct-12 19:57N 49°13' W 123°46'3 6.2
2017-Oct-12 19:30N 49°12' W 123°42'3 6.1
2017-Oct-12 18:59N 49°11' W 123°37'3 6.0
2017-Oct-12 18:30N 49°10' W 123°33'3 5.8
2017-Oct-12 18:00N 49°09' W 123°29'3 5.6
2017-Oct-12 17:30N 49°08' W 123°25'3 6.0
2017-Oct-12 17:00N 49°07' W 123°21'2 4.7
2017-Oct-12 16:30N 49°07' W 123°17'2 4.7
2017-Oct-12 16:01N 49°08' W 123°14'3 5.4
2017-Oct-12 15:30N 49°07' W 123°10'3 6.1
2017-Oct-12 14:59N 49°07' W 123°05'3 6.7
2017-Oct-12 14:30N 49°09' W 123°02'3 5.8
2017-Oct-12 14:00N 49°09' W 122°57'0 0.9
2017-Oct-12 13:30N 49°09' W 122°58'1 1.4
2017-Oct-12 13:00N 49°09' W 122°59'2 3.5
2017-Oct-12 12:30N 49°09' W 123°02'2 3.7
2017-Oct-12 12:00N 49°08' W 123°04'2 3.8
2017-Oct-12 11:30N 49°07' W 123°06'2 3.4
2017-Oct-12 11:00N 49°07' W 123°09'2 3.3
2017-Oct-12 10:30N 49°07' W 123°11'2 3.8
2017-Oct-12 10:00N 49°08' W 123°14'2 3.4
2017-Oct-12 09:30N 49°07' W 123°16'2 3.0
2017-Oct-12 08:59N 49°06' W 123°18'1 2.3
2017-Oct-12 08:30N 49°07' W 123°19'2 3.8
2017-Oct-12 08:00N 49°09' W 123°19'2 3.7
2017-Oct-12 07:30N 49°11' W 123°19'3 6.1
2017-Oct-12 07:00N 49°14' W 123°18'2 4.2
2017-Oct-12 06:30N 49°15' W 123°21'3 6.9
2017-Oct-12 06:00N 49°17' W 123°25'3 6.7
2017-Oct-12 05:30N 49°19' W 123°30'3 7.0
2017-Oct-12 05:01N 49°20' W 123°35'3 6.6
2017-Oct-12 04:31N 49°21' W 123°39'3 7.0
2017-Oct-12 04:00N 49°23' W 123°44'3 6.8
2017-Oct-12 03:30N 49°24' W 123°49'3 6.9
2017-Oct-12 03:00N 49°26' W 123°54'3 7.0
2017-Oct-12 02:30N 49°27' W 123°58'4 7.1
2017-Oct-12 02:01N 49°29' W 124°03'4 7.3
2017-Oct-12 01:30N 49°32' W 124°06'4 7.8
2017-Oct-12 01:00N 49°35' W 124°10'4 7.6
2017-Oct-12 00:30N 49°38' W 124°14'4 7.6
2017-Oct-12 00:00N 49°41' W 124°18'4 7.3
2017-Oct-11 23:30N 49°43' W 124°22'4 7.3
2017-Oct-11 23:00N 49°45' W 124°27'4 7.5
2017-Oct-11 22:30N 49°48' W 124°31'4 7.5
2017-Oct-11 22:00N 49°51' W 124°34'1 2.1
2017-Oct-11 21:27N 49°52' W 124°33'0 0.9
2017-Oct-11 21:00N 49°52' W 124°34'1 2.0
2017-Oct-11 20:31N 49°51' W 124°33'3 5.3
2017-Oct-11 20:00N 49°48' W 124°32'3 5.2
2017-Oct-11 19:30N 49°47' W 124°29'3 5.0
2017-Oct-11 19:00N 49°45' W 124°26'2 5.0
2017-Oct-11 18:30N 49°44' W 124°23'3 5.0
2017-Oct-11 18:00N 49°43' W 124°20'3 5.0
2017-Oct-11 17:30N 49°41' W 124°17'2 5.0
2017-Oct-11 17:00N 49°39' W 124°15'22 1.3
2017-Oct-11 00:00N 49°28' W 123°45'1 2.2
2017-Oct-10 23:30N 49°27' W 123°45'2 3.8
2017-Oct-10 23:00N 49°25' W 123°44'2 4.2
2017-Oct-10 22:30N 49°23' W 123°42'3 5.7
2017-Oct-10 22:00N 49°21' W 123°40'4 7.3
2017-Oct-10 21:30N 49°18' W 123°36'4 8.6
2017-Oct-10 21:00N 49°15' W 123°32'4 8.4
2017-Oct-10 20:30N 49°12' W 123°28'4 8.1
2017-Oct-10 20:00N 49°09' W 123°24'4 8.0
2017-Oct-10 19:30N 49°06' W 123°19'4 8.1
2017-Oct-10 19:00N 49°08' W 123°13'4 7.7
2017-Oct-10 18:30N 49°07' W 123°07'4 7.7
2017-Oct-10 18:00N 49°09' W 123°02'3 6.7
2017-Oct-10 17:30N 49°09' W 122°57'3 5.5
2017-Oct-10 17:00N 49°12' W 122°55'0 0.8
2017-Oct-10 16:22N 49°12' W 122°55'0 0.0
2017-Oct-10 16:00N 49°12' W 122°55'0 0.0
2017-Oct-10 15:30N 49°12' W 122°55'0 0.0
2017-Oct-10 13:49N 49°12' W 122°55'1 2.9
2017-Oct-10 13:30N 49°11' W 122°55'1 1.0
2017-Oct-10 13:00N 49°12' W 122°55'2 3.5
2017-Oct-10 12:30N 49°10' W 122°56'2 4.7
2017-Oct-10 12:00N 49°09' W 122°59'2 4.4
2017-Oct-10 11:30N 49°09' W 123°02'2 3.5
2017-Oct-10 11:00N 49°07' W 123°04'2 3.1
2017-Oct-10 10:30N 49°07' W 123°06'1 2.1
2017-Oct-10 10:00N 49°06' W 123°08'1 1.9
2017-Oct-10 09:30N 49°07' W 123°09'1 1.9
2017-Oct-10 09:01N 49°07' W 123°11'1 2.2
2017-Oct-10 08:30N 49°07' W 123°12'1 2.1
2017-Oct-10 08:00N 49°08' W 123°14'1 2.5
2017-Oct-10 07:30N 49°07' W 123°16'2 3.4
2017-Oct-10 07:00N 49°06' W 123°18'2 3.9
2017-Oct-10 06:30N 49°08' W 123°19'3 6.7
2017-Oct-10 06:00N 49°12' W 123°18'3 6.4
2017-Oct-10 05:30N 49°15' W 123°18'2 4.2
2017-Oct-10 05:01N 49°16' W 123°20'2 4.1
2017-Oct-10 04:30N 49°17' W 123°23'3 5.4
2017-Oct-10 04:00N 49°18' W 123°27'3 5.4
2017-Oct-10 03:30N 49°19' W 123°31'3 5.4
2017-Oct-10 03:00N 49°20' W 123°35'3 5.3
2017-Oct-10 02:31N 49°21' W 123°38'3 5.4
2017-Oct-10 02:00N 49°22' W 123°42'3 5.5
2017-Oct-10 01:31N 49°23' W 123°46'3 5.4
2017-Oct-10 01:00N 49°24' W 123°50'3 5.5
2017-Oct-10 00:31N 49°25' W 123°54'3 5.2
2017-Oct-10 00:00N 49°26' W 123°57'2 4.8
2017-Oct-09 23:30N 49°28' W 124°00'2 4.7
2017-Oct-09 23:00N 49°30' W 124°03'3 5.0
2017-Oct-09 22:30N 49°32' W 124°05'3 5.2
2017-Oct-09 22:00N 49°34' W 124°08'3 5.2
2017-Oct-09 21:30N 49°36' W 124°10'3 5.4
2017-Oct-09 21:00N 49°38' W 124°13'3 5.6
2017-Oct-09 20:30N 49°40' W 124°16'3 5.4
2017-Oct-09 20:00N 49°42' W 124°19'3 5.4
2017-Oct-09 19:30N 49°43' W 124°22'3 5.6
2017-Oct-09 19:00N 49°45' W 124°26'3 5.3
2017-Oct-09 18:30N 49°46' W 124°29'3 5.1
2017-Oct-09 18:00N 49°48' W 124°32'2 4.8
2017-Oct-09 17:30N 49°50' W 124°33'2 3.8
2017-Oct-09 17:00N 49°52' W 124°34'0 0.6
2017-Oct-09 16:30N 49°52' W 124°34'0 0.0
2017-Oct-09 16:01N 49°52' W 124°34'0 0.2
2017-Oct-09 15:30N 49°52' W 124°34'0 0.4
2017-Oct-09 15:01N 49°52' W 124°34'1 2.4
2017-Oct-09 14:30N 49°51' W 124°33'2 4.6
2017-Oct-09 14:00N 49°49' W 124°33'2 4.6
2017-Oct-09 13:30N 49°47' W 124°30'2 4.4
2017-Oct-09 13:00N 49°46' W 124°28'2 4.6
2017-Oct-09 12:30N 49°44' W 124°25'2 4.4
2017-Oct-09 12:00N 49°43' W 124°22'2 4.5
2017-Oct-09 11:30N 49°42' W 124°19'2 4.5
2017-Oct-09 11:00N 49°41' W 124°16'2 4.5
2017-Oct-09 10:30N 49°39' W 124°14'3 5.3
2017-Oct-09 10:00N 49°37' W 124°11'3 5.6
2017-Oct-09 09:30N 49°35' W 124°08'3 5.6
2017-Oct-09 09:00N 49°33' W 124°06'3 5.5
2017-Oct-09 08:30N 49°30' W 124°04'3 5.7
2017-Oct-09 08:00N 49°28' W 124°01'3 5.8
2017-Oct-09 07:30N 49°27' W 123°57'3 5.8
2017-Oct-09 07:00N 49°26' W 123°52'3 6.0
2017-Oct-09 06:30N 49°25' W 123°48'3 6.0
2017-Oct-09 06:00N 49°24' W 123°44'3 5.8
2017-Oct-09 05:30N 49°23' W 123°40'3 5.8
2017-Oct-09 05:00N 49°22' W 123°36'3 6.1
2017-Oct-09 04:30N 49°21' W 123°31'3 6.1
2017-Oct-09 04:01N 49°19' W 123°27'3 6.0
2017-Oct-09 03:30N 49°18' W 123°23'3 5.8
2017-Oct-09 03:00N 49°17' W 123°19'2 3.5
2017-Oct-09 02:30N 49°16' W 123°17'1 2.4
2017-Oct-09 02:00N 49°14' W 123°18'2 3.3
2017-Oct-09 01:30N 49°13' W 123°18'3 5.7
2017-Oct-09 00:59N 49°10' W 123°19'3 6.2
2017-Oct-09 00:30N 49°07' W 123°19'2 3.8
2017-Oct-08 23:59N 49°07' W 123°16'3 6.0
2017-Oct-08 23:30N 49°07' W 123°12'4 7.1
2017-Oct-08 23:00N 49°07' W 123°07'4 7.1
2017-Oct-08 22:29N 49°09' W 123°02'3 6.8
2017-Oct-08 22:00N 49°09' W 122°57'0 0.4
2017-Oct-08 21:31N 49°09' W 122°57'0 0.0
2017-Oct-08 21:00N 49°09' W 122°57'0 0.5
2017-Oct-08 20:30N 49°09' W 122°58'1 1.2
2017-Oct-08 20:00N 49°09' W 122°59'2 3.2
2017-Oct-08 19:30N 49°09' W 123°01'2 4.1
2017-Oct-08 19:00N 49°08' W 123°04'2 3.1
2017-Oct-08 18:30N 49°07' W 123°05'2 3.5
2017-Oct-08 18:00N 49°06' W 123°08'2 3.5
2017-Oct-08 17:30N 49°07' W 123°11'2 3.9
2017-Oct-08 17:00N 49°08' W 123°13'4 7.4
2017-Oct-08 16:30N 49°06' W 123°18'3 7.1
2017-Oct-08 16:00N 49°10' W 123°19'4 8.1
2017-Oct-08 15:30N 49°14' W 123°18'2 4.9
2017-Oct-08 15:00N 49°16' W 123°18'1 1.9
2017-Oct-08 14:30N 49°16' W 123°19'2 3.8
2017-Oct-08 14:00N 49°16' W 123°22'2 3.8
2017-Oct-08 13:30N 49°17' W 123°24'2 4.3
2017-Oct-08 13:00N 49°18' W 123°27'2 4.2
2017-Oct-08 12:30N 49°19' W 123°30'2 4.0
2017-Oct-08 12:01N 49°20' W 123°33'2 4.3
2017-Oct-08 11:30N 49°20' W 123°36'2 4.4
2017-Oct-08 11:00N 49°21' W 123°39'2 4.3
2017-Oct-08 10:30N 49°22' W 123°42'2 4.1
2017-Oct-08 10:00N 49°23' W 123°45'2 4.3
2017-Oct-08 09:30N 49°24' W 123°48'2 4.7
2017-Oct-08 09:00N 49°25' W 123°52'4 7.7
2017-Oct-08 08:30N 49°26' W 123°57'4 8.3
2017-Oct-08 08:00N 49°29' W 124°02'4 7.8
2017-Oct-08 07:30N 49°32' W 124°06'4 8.1
2017-Oct-08 07:00N 49°35' W 124°10'4 8.0
2017-Oct-08 06:30N 49°38' W 124°14'  

Dump ship's entire track history